createdAt,value
2018-12-07T00:00:22.191Z,-1.12
2018-12-07T00:02:48.478Z,-1.15
2018-12-07T00:05:14.770Z,-1.09
2018-12-07T00:07:41.066Z,-1.07
2018-12-07T00:10:07.365Z,-1.24
2018-12-07T00:12:33.647Z,-1.50
2018-12-07T00:14:59.935Z,-1.55
2018-12-07T00:17:26.232Z,-1.61
2018-12-07T00:19:52.525Z,-1.67
2018-12-07T00:22:18.811Z,-1.80
2018-12-07T00:24:45.110Z,-1.76
2018-12-07T00:27:11.408Z,-1.70
2018-12-07T00:29:37.701Z,-1.78
2018-12-07T00:32:04.019Z,-1.86
2018-12-07T00:34:30.412Z,-1.86
2018-12-07T00:36:56.619Z,-1.81
2018-12-07T00:39:22.923Z,-1.78
2018-12-07T00:41:49.212Z,-1.75
2018-12-07T00:44:15.597Z,-1.80
2018-12-07T00:46:41.901Z,-1.87
2018-12-07T00:49:08.245Z,-1.92
2018-12-07T00:51:34.561Z,-1.83
2018-12-07T00:54:00.855Z,-1.88
2018-12-07T00:56:27.199Z,-1.97
2018-12-07T00:58:53.488Z,-2.08
2018-12-07T01:01:19.776Z,-2.14
2018-12-07T01:03:46.072Z,-2.23
2018-12-07T01:06:12.400Z,-2.20
2018-12-07T01:08:38.696Z,-2.28
2018-12-07T01:11:04.992Z,-2.32
2018-12-07T01:13:31.299Z,-2.35
2018-12-07T01:15:57.568Z,-2.26
2018-12-07T01:18:23.883Z,-2.23
2018-12-07T01:20:50.153Z,-2.38
2018-12-07T01:23:16.454Z,-2.49
2018-12-07T01:25:42.747Z,-2.56
2018-12-07T01:28:09.051Z,-2.60
2018-12-07T01:30:35.326Z,-2.66
2018-12-07T01:33:01.624Z,-2.72
2018-12-07T01:35:27.958Z,-2.76
2018-12-07T01:37:54.254Z,-2.80
2018-12-07T01:40:20.542Z,-2.82
2018-12-07T01:42:46.838Z,-2.75
2018-12-07T01:45:13.116Z,-2.68
2018-12-07T01:47:39.409Z,-2.67
2018-12-07T01:50:05.699Z,-2.78
2018-12-07T01:52:31.982Z,-2.88
2018-12-07T01:54:58.286Z,-2.87
2018-12-07T01:57:24.569Z,-2.85
2018-12-07T01:59:50.911Z,-2.83
2018-12-07T02:02:17.209Z,-2.79
2018-12-07T02:04:43.505Z,-2.85
2018-12-07T02:07:09.795Z,-2.93
2018-12-07T02:09:36.099Z,-2.98
2018-12-07T02:12:02.393Z,-3.01
2018-12-07T02:14:28.726Z,-3.02
2018-12-07T02:16:55.023Z,-3.06
2018-12-07T02:19:21.319Z,-3.06
2018-12-07T02:21:47.599Z,-2.95
2018-12-07T02:24:13.903Z,-2.81
2018-12-07T02:26:40.205Z,-2.63
2018-12-07T02:29:06.494Z,-2.48
2018-12-07T02:31:32.820Z,-2.59
2018-12-07T02:33:59.126Z,-2.66
2018-12-07T02:36:25.456Z,-2.74
2018-12-07T02:38:51.759Z,-2.83
2018-12-07T02:41:18.046Z,-2.93
2018-12-07T02:43:44.349Z,-2.97
2018-12-07T02:46:10.631Z,-3.06
2018-12-07T02:48:36.929Z,-2.97
2018-12-07T02:51:03.225Z,-2.85
2018-12-07T02:53:29.555Z,-2.93
2018-12-07T02:55:55.888Z,-3.04
2018-12-07T02:58:22.188Z,-3.15
2018-12-07T03:00:48.513Z,-3.09
2018-12-07T03:03:14.821Z,-3.12
2018-12-07T03:05:41.115Z,-3.09
2018-12-07T03:08:07.407Z,-3.09
2018-12-07T03:10:33.725Z,-3.11
2018-12-07T03:13:00.027Z,-3.13
2018-12-07T03:15:26.315Z,-3.30
2018-12-07T03:17:52.622Z,-3.40
2018-12-07T03:20:18.913Z,-3.52
2018-12-07T03:22:45.208Z,-3.60
2018-12-07T03:25:11.494Z,-3.69
2018-12-07T03:27:37.788Z,-3.78
2018-12-07T03:30:07.943Z,-3.79
2018-12-07T03:32:34.257Z,-3.81
2018-12-07T03:35:00.554Z,-3.82
2018-12-07T03:37:26.847Z,-3.85
2018-12-07T03:39:53.131Z,-3.84
2018-12-07T03:42:19.447Z,-3.87
2018-12-07T03:44:45.773Z,-3.81
2018-12-07T03:47:12.097Z,-3.87
2018-12-07T03:49:38.377Z,-3.96
2018-12-07T03:52:04.685Z,-4.09
2018-12-07T03:54:30.961Z,-4.18
2018-12-07T03:56:57.268Z,-4.21
2018-12-07T03:59:23.560Z,-4.19
2018-12-07T04:01:49.867Z,-4.20
2018-12-07T04:04:16.173Z,-4.26
2018-12-07T04:06:42.479Z,-4.27
2018-12-07T04:09:08.766Z,-4.23
2018-12-07T04:11:35.066Z,-4.01
2018-12-07T04:14:01.360Z,-3.97
2018-12-07T04:16:27.692Z,-4.04
2018-12-07T04:18:53.969Z,-4.01
2018-12-07T04:21:20.334Z,-3.98
2018-12-07T04:23:46.636Z,-3.92
2018-12-07T04:26:13.013Z,-3.84
2018-12-07T04:28:39.297Z,-3.97
2018-12-07T04:31:05.611Z,-4.12
2018-12-07T04:33:31.933Z,-4.25
2018-12-07T04:35:58.245Z,-4.22
2018-12-07T04:38:24.540Z,-4.03
2018-12-07T04:40:50.828Z,-3.71
2018-12-07T04:43:17.126Z,-3.59
2018-12-07T04:45:43.430Z,-3.61
2018-12-07T04:48:09.759Z,-3.67
2018-12-07T04:50:36.017Z,-3.79
2018-12-07T04:53:02.305Z,-3.79
2018-12-07T04:55:28.596Z,-3.72
2018-12-07T04:57:54.880Z,-3.73
2018-12-07T05:00:21.199Z,-3.58
2018-12-07T05:02:47.613Z,-3.51
2018-12-07T05:05:13.943Z,-3.53
2018-12-07T05:07:40.266Z,-3.61
2018-12-07T05:10:06.568Z,-3.64
2018-12-07T05:12:32.863Z,-3.58
2018-12-07T05:14:59.154Z,-3.65
2018-12-07T05:17:25.474Z,-3.81
2018-12-07T05:19:51.805Z,-3.92
2018-12-07T05:22:18.121Z,-3.98
2018-12-07T05:24:44.438Z,-4.04
2018-12-07T05:27:10.717Z,-4.04
2018-12-07T05:29:37.047Z,-4.03
2018-12-07T05:32:03.338Z,-4.01
2018-12-07T05:34:29.638Z,-3.94
2018-12-07T05:36:55.917Z,-4.02
2018-12-07T05:39:22.220Z,-4.14
2018-12-07T05:41:48.564Z,-4.12
2018-12-07T05:44:14.857Z,-4.14
2018-12-07T05:46:41.134Z,-4.15
2018-12-07T05:49:07.446Z,-3.57
2018-12-07T05:51:33.751Z,-3.23
2018-12-07T05:54:00.062Z,-3.15
2018-12-07T05:56:26.390Z,-3.49
2018-12-07T05:58:52.683Z,-3.67
2018-12-07T06:01:18.998Z,-3.82
2018-12-07T06:03:45.320Z,-3.87
2018-12-07T06:06:11.610Z,-3.83
2018-12-07T06:08:37.964Z,-3.81
2018-12-07T06:11:04.259Z,-3.79
2018-12-07T06:13:30.595Z,-3.73
2018-12-07T06:15:56.874Z,-3.72
2018-12-07T06:18:23.175Z,-3.58
2018-12-07T06:20:49.470Z,-3.48
2018-12-07T06:23:15.750Z,-3.16
2018-12-07T06:25:42.035Z,-2.85
2018-12-07T06:28:08.342Z,-2.58
2018-12-07T06:30:34.667Z,-2.47
2018-12-07T06:33:00.974Z,-2.19
2018-12-07T06:35:27.322Z,-2.10
2018-12-07T06:37:53.619Z,-2.13
2018-12-07T06:40:19.906Z,-1.96
2018-12-07T06:42:46.210Z,-1.67
2018-12-07T06:45:12.532Z,-1.21
2018-12-07T06:47:38.831Z,-1.11
2018-12-07T06:50:05.128Z,-0.72
2018-12-07T06:52:31.429Z,-0.70
2018-12-07T06:54:57.713Z,-0.85
2018-12-07T06:57:24.013Z,-0.94
2018-12-07T06:59:50.295Z,-0.76
2018-12-07T07:02:16.608Z,-0.61
2018-12-07T07:04:42.898Z,-0.60
2018-12-07T07:07:09.193Z,-0.60
2018-12-07T07:09:35.491Z,-0.54
2018-12-07T07:12:01.789Z,-0.53
2018-12-07T07:14:28.075Z,-0.47
2018-12-07T07:16:54.386Z,-0.17
2018-12-07T07:19:20.852Z,0.06
2018-12-07T07:21:47.110Z,0.20
2018-12-07T07:24:13.571Z,0.00
2018-12-07T07:26:39.882Z,-0.09
2018-12-07T07:29:06.165Z,-0.42
2018-12-07T07:31:32.514Z,-0.03
2018-12-07T07:33:58.844Z,0.24
2018-12-07T07:36:25.179Z,-0.02
2018-12-07T07:38:51.479Z,-0.09
2018-12-07T07:41:17.872Z,0.27
2018-12-07T07:43:45.871Z,0.66
2018-12-07T07:46:10.427Z,1.11
2018-12-07T07:48:36.729Z,1.52
2018-12-07T07:51:03.012Z,1.55
2018-12-07T07:53:29.315Z,1.06
2018-12-07T07:55:55.619Z,1.13
2018-12-07T07:58:21.996Z,1.37
2018-12-07T08:00:48.294Z,1.33
2018-12-07T08:03:14.606Z,1.33
2018-12-07T08:05:40.921Z,1.13
2018-12-07T08:08:07.198Z,1.04
2018-12-07T08:10:33.550Z,1.04
2018-12-07T08:12:59.843Z,0.77
2018-12-07T08:15:26.130Z,1.00
2018-12-07T08:17:52.421Z,1.12
2018-12-07T08:20:18.723Z,1.22
2018-12-07T08:22:45.065Z,0.91
2018-12-07T08:25:11.358Z,1.27
2018-12-07T08:27:37.675Z,1.60
2018-12-07T08:30:05.977Z,1.26
2018-12-07T08:32:32.263Z,1.02
2018-12-07T08:34:58.577Z,1.39
2018-12-07T08:37:24.868Z,1.12
2018-12-07T08:39:51.167Z,1.07
2018-12-07T08:42:17.449Z,1.09
2018-12-07T08:44:43.800Z,1.19
2018-12-07T08:47:10.112Z,1.50
2018-12-07T08:49:36.412Z,1.34
2018-12-07T08:52:02.701Z,1.43
2018-12-07T08:54:28.990Z,1.30
2018-12-07T08:56:55.280Z,1.51
2018-12-07T08:59:21.582Z,1.66
2018-12-07T09:01:47.871Z,1.91
2018-12-07T09:04:14.167Z,2.48
2018-12-07T09:06:40.465Z,2.97
2018-12-07T09:09:06.765Z,3.35
2018-12-07T09:11:33.046Z,2.88
2018-12-07T09:13:59.365Z,3.31
2018-12-07T09:16:25.666Z,3.48
2018-12-07T09:18:51.952Z,3.11
2018-12-07T09:21:18.249Z,3.36
2018-12-07T09:23:49.545Z,3.65
2018-12-07T09:26:10.846Z,3.48
2018-12-07T09:28:37.156Z,3.73
2018-12-07T09:31:03.473Z,4.16
2018-12-07T09:33:29.769Z,4.04
2018-12-07T09:35:56.052Z,4.42
2018-12-07T09:38:22.376Z,4.90
2018-12-07T09:40:48.672Z,5.11
2018-12-07T09:43:14.961Z,4.79
2018-12-07T09:45:41.259Z,4.64
2018-12-07T09:48:07.557Z,4.84
2018-12-07T09:50:33.836Z,4.95
2018-12-07T09:53:00.145Z,5.26
2018-12-07T09:55:26.495Z,5.49
2018-12-07T09:57:52.825Z,5.39
2018-12-07T10:00:19.101Z,5.69
2018-12-07T10:02:45.401Z,6.00
2018-12-07T10:05:11.684Z,5.87
2018-12-07T10:07:37.991Z,6.01
2018-12-07T10:10:04.282Z,6.51
2018-12-07T10:12:30.624Z,6.50
2018-12-07T10:14:56.942Z,6.23
2018-12-07T10:17:23.282Z,6.94
2018-12-07T10:19:49.620Z,7.19
2018-12-07T10:22:15.917Z,6.75
2018-12-07T10:24:42.365Z,7.09
2018-12-07T10:27:08.617Z,7.48
2018-12-07T10:29:34.927Z,7.50
2018-12-07T10:32:01.244Z,7.42
2018-12-07T10:34:27.582Z,6.35
2018-12-07T10:36:53.875Z,6.96
2018-12-07T10:39:20.217Z,7.68
2018-12-07T10:41:46.524Z,7.82
2018-12-07T10:44:12.820Z,7.35
2018-12-07T10:46:39.178Z,7.46
2018-12-07T10:49:05.468Z,7.58
2018-12-07T10:51:31.769Z,7.78
2018-12-07T10:53:58.052Z,7.66
2018-12-07T10:56:24.393Z,8.33
2018-12-07T10:58:50.692Z,8.50
2018-12-07T11:01:16.983Z,7.89
2018-12-07T11:03:43.284Z,7.90
2018-12-07T11:06:09.594Z,7.46
2018-12-07T11:08:35.879Z,7.67
2018-12-07T11:11:02.196Z,7.77
2018-12-07T11:13:28.507Z,7.57
2018-12-07T11:15:54.833Z,7.58
2018-12-07T11:18:21.305Z,7.78
2018-12-07T11:20:47.686Z,7.97
2018-12-07T11:23:13.967Z,8.25
2018-12-07T11:25:40.277Z,8.76
2018-12-07T11:28:06.586Z,8.74
2018-12-07T11:30:32.923Z,8.68
2018-12-07T11:32:59.205Z,8.99
2018-12-07T11:35:25.517Z,9.04
2018-12-07T11:37:51.812Z,8.60
2018-12-07T11:40:18.108Z,9.01
2018-12-07T11:42:44.411Z,9.38
2018-12-07T11:45:10.708Z,9.62
2018-12-07T11:47:36.990Z,9.41
2018-12-07T11:50:03.296Z,9.90
2018-12-07T11:52:29.593Z,10.34
2018-12-07T11:54:55.891Z,10.41
2018-12-07T11:57:22.179Z,10.22
2018-12-07T11:59:48.502Z,9.72
2018-12-07T12:02:14.777Z,9.38
2018-12-07T12:04:41.086Z,8.70
2018-12-07T12:07:07.382Z,8.42
2018-12-07T12:09:33.676Z,7.86
2018-12-07T12:11:59.977Z,7.91
2018-12-07T12:14:26.265Z,7.76
2018-12-07T12:16:52.557Z,7.92
2018-12-07T12:19:18.862Z,8.11
2018-12-07T12:21:45.145Z,8.40
2018-12-07T12:24:11.443Z,8.89
2018-12-07T12:26:37.797Z,9.61
2018-12-07T12:29:04.096Z,9.87
2018-12-07T12:31:30.398Z,9.15
2018-12-07T12:33:56.709Z,8.97
2018-12-07T12:36:23.000Z,8.55
2018-12-07T12:38:49.276Z,8.42
2018-12-07T12:41:15.590Z,8.30
2018-12-07T12:43:41.914Z,8.13
2018-12-07T12:46:08.210Z,7.94
2018-12-07T12:48:34.503Z,7.67
2018-12-07T12:51:00.822Z,7.13
2018-12-07T12:53:27.168Z,6.84
2018-12-07T12:55:53.461Z,6.74
2018-12-07T12:58:19.766Z,7.02
2018-12-07T13:00:46.101Z,7.11
2018-12-07T13:03:12.439Z,6.83
2018-12-07T13:05:38.745Z,6.86
2018-12-07T13:08:05.065Z,6.78
2018-12-07T13:10:31.348Z,7.52
2018-12-07T13:12:57.650Z,7.63
2018-12-07T13:15:23.954Z,7.46
2018-12-07T13:17:50.239Z,7.63
2018-12-07T13:20:16.601Z,7.93
2018-12-07T13:22:42.990Z,8.16
2018-12-07T13:25:09.255Z,8.45
2018-12-07T13:27:35.550Z,8.36
2018-12-07T13:30:01.864Z,8.43
2018-12-07T13:32:28.148Z,8.61
2018-12-07T13:34:54.436Z,8.67
2018-12-07T13:37:20.746Z,8.22
2018-12-07T13:39:47.214Z,8.12
2018-12-07T13:42:13.354Z,7.85
2018-12-07T13:44:39.871Z,7.33
2018-12-07T13:47:06.198Z,7.02
2018-12-07T13:49:32.423Z,6.80
2018-12-07T13:51:58.558Z,6.75
2018-12-07T13:54:24.949Z,6.66
2018-12-07T13:56:51.315Z,6.49
2018-12-07T13:59:17.545Z,6.22
2018-12-07T14:01:43.910Z,5.96
2018-12-07T14:04:10.157Z,5.65
2018-12-07T14:06:36.594Z,5.60
2018-12-07T14:09:02.878Z,5.62
2018-12-07T14:11:29.061Z,5.61
2018-12-07T14:13:55.396Z,5.50
2018-12-07T14:16:21.674Z,5.45
2018-12-07T14:18:48.161Z,5.33
2018-12-07T14:21:14.283Z,5.29
2018-12-07T14:23:40.753Z,5.23
2018-12-07T14:26:06.900Z,5.15
2018-12-07T14:28:33.255Z,5.26
2018-12-07T14:30:59.517Z,5.21
2018-12-07T14:33:25.884Z,5.18
2018-12-07T14:35:52.245Z,5.27
2018-12-07T14:38:18.490Z,5.23
2018-12-07T14:40:44.853Z,5.19
2018-12-07T14:43:11.121Z,5.15
2018-12-07T14:45:37.311Z,5.08
2018-12-07T14:48:03.669Z,5.05
2018-12-07T14:50:29.866Z,4.98
2018-12-07T14:52:56.194Z,4.88
2018-12-07T14:55:22.818Z,4.71
2018-12-07T14:57:48.993Z,4.58
2018-12-07T15:00:15.136Z,4.37
2018-12-07T15:02:41.504Z,4.14
2018-12-07T15:05:07.896Z,3.97
2018-12-07T15:07:34.092Z,3.84
2018-12-07T15:10:00.496Z,3.68
2018-12-07T15:12:26.674Z,3.57
2018-12-07T15:14:53.037Z,3.49
2018-12-07T15:17:19.732Z,3.41
2018-12-07T15:19:46.191Z,3.34
2018-12-07T15:22:12.174Z,3.31
2018-12-07T15:24:38.422Z,3.26
2018-12-07T15:27:04.731Z,3.22
2018-12-07T15:29:31.329Z,3.16
2018-12-07T15:31:57.354Z,3.17
2018-12-07T15:34:23.808Z,3.01
2018-12-07T15:36:49.920Z,2.99
2018-12-07T15:39:16.302Z,2.89
2018-12-07T15:41:42.613Z,2.84
2018-12-07T15:44:08.945Z,2.84
2018-12-07T15:46:35.214Z,2.80
2018-12-07T15:49:01.571Z,2.76
2018-12-07T15:51:27.979Z,2.68
2018-12-07T15:53:54.242Z,2.55
2018-12-07T15:56:20.730Z,2.46
2018-12-07T15:58:46.785Z,2.33
2018-12-07T16:01:13.076Z,2.24
2018-12-07T16:03:39.279Z,2.25
2018-12-07T16:06:05.652Z,2.26
2018-12-07T16:08:32.125Z,2.27
2018-12-07T16:10:58.210Z,2.28
2018-12-07T16:13:25.104Z,2.24
2018-12-07T16:15:51.414Z,2.19
2018-12-07T16:18:17.607Z,2.19
2018-12-07T16:20:43.882Z,2.18
2018-12-07T16:23:10.157Z,2.21
2018-12-07T16:25:36.455Z,2.26
2018-12-07T16:28:02.870Z,2.36
2018-12-07T16:30:29.068Z,2.43
2018-12-07T16:32:55.366Z,2.49
2018-12-07T16:35:21.714Z,2.57
2018-12-07T16:37:48.194Z,2.61
2018-12-07T16:40:14.329Z,2.67
2018-12-07T16:42:40.598Z,2.64
2018-12-07T16:45:06.928Z,2.68
2018-12-07T16:47:33.307Z,2.71
2018-12-07T16:49:59.521Z,2.89
2018-12-07T16:52:25.747Z,2.96
2018-12-07T16:54:52.111Z,2.97
2018-12-07T16:57:18.417Z,3.07
2018-12-07T16:59:44.687Z,3.10
2018-12-07T17:02:11.165Z,3.12
2018-12-07T17:04:37.408Z,3.21
2018-12-07T17:07:03.779Z,3.14
2018-12-07T17:09:29.884Z,2.96
2018-12-07T17:11:56.251Z,2.82
2018-12-07T17:14:22.637Z,2.70
2018-12-07T17:16:48.823Z,2.62
2018-12-07T17:19:15.073Z,2.57
2018-12-07T17:21:41.344Z,2.57
2018-12-07T17:24:07.653Z,2.62
2018-12-07T17:26:34.202Z,2.72
2018-12-07T17:29:00.429Z,2.79
2018-12-07T17:31:26.817Z,2.50
2018-12-07T17:33:53.018Z,2.45
2018-12-07T17:36:19.384Z,2.51
2018-12-07T17:38:45.847Z,2.52
2018-12-07T17:41:12.052Z,2.35
2018-12-07T17:43:38.258Z,2.28
2018-12-07T17:46:04.457Z,2.23
2018-12-07T17:48:30.869Z,2.17
2018-12-07T17:50:57.167Z,2.11
2018-12-07T17:53:23.353Z,2.04
2018-12-07T17:55:49.654Z,1.95
2018-12-07T17:58:16.142Z,1.84
2018-12-07T18:00:42.258Z,1.81
2018-12-07T18:03:08.553Z,1.84
2018-12-07T18:05:34.856Z,1.88
2018-12-07T18:08:01.171Z,1.88
2018-12-07T18:10:27.720Z,1.79
2018-12-07T18:12:53.755Z,1.75
2018-12-07T18:15:20.076Z,2.02
2018-12-07T18:17:46.689Z,2.06
2018-12-07T18:20:12.971Z,1.98
2018-12-07T18:22:38.946Z,2.01
2018-12-07T18:25:05.233Z,2.10
2018-12-07T18:27:31.551Z,2.01
2018-12-07T18:29:57.997Z,1.89
2018-12-07T18:32:24.213Z,1.91
2018-12-07T18:34:50.565Z,1.84
2018-12-07T18:37:17.037Z,1.79
2018-12-07T18:39:43.116Z,1.72
2018-12-07T18:42:09.467Z,1.63
2018-12-07T18:44:35.808Z,1.55
2018-12-07T18:47:02.109Z,1.41
2018-12-07T18:49:28.411Z,1.27
2018-12-07T18:51:54.678Z,1.26
2018-12-07T18:54:20.917Z,1.43
2018-12-07T18:56:47.368Z,1.62
2018-12-07T18:59:13.535Z,1.68
2018-12-07T19:01:39.989Z,1.73
2018-12-07T19:04:06.395Z,1.67
2018-12-07T19:06:32.493Z,1.67
2018-12-07T19:08:58.805Z,1.65
2018-12-07T19:11:25.064Z,1.64
2018-12-07T19:13:51.509Z,1.62
2018-12-07T19:16:17.722Z,1.66
2018-12-07T19:18:43.883Z,1.66
2018-12-07T19:21:10.329Z,1.68
2018-12-07T19:23:36.678Z,1.66
2018-12-07T19:26:03.094Z,1.77
2018-12-07T19:28:29.056Z,1.76
2018-12-07T19:30:55.452Z,1.72
2018-12-07T19:33:21.839Z,1.66
2018-12-07T19:35:47.980Z,1.66
2018-12-07T19:38:14.360Z,1.69
2018-12-07T19:40:40.679Z,1.68
2018-12-07T19:43:07.156Z,1.63
2018-12-07T19:45:33.346Z,1.42
2018-12-07T19:47:59.717Z,1.36
2018-12-07T19:50:26.050Z,1.33
2018-12-07T19:52:52.524Z,1.35
2018-12-07T19:55:18.635Z,1.35
2018-12-07T19:57:44.981Z,1.38
2018-12-07T20:00:11.573Z,1.25
2018-12-07T20:02:37.542Z,1.09
2018-12-07T20:05:03.844Z,1.11
2018-12-07T20:07:30.232Z,1.10
2018-12-07T20:09:56.629Z,1.15
2018-12-07T20:12:22.711Z,1.00
2018-12-07T20:14:49.006Z,0.93
2018-12-07T20:17:15.313Z,0.92
2018-12-07T20:19:41.619Z,0.91
2018-12-07T20:22:07.895Z,0.79
2018-12-07T20:24:34.801Z,0.65
2018-12-07T20:27:01.062Z,0.60
2018-12-07T20:29:27.232Z,0.56
2018-12-07T20:31:53.507Z,0.53
2018-12-07T20:34:19.859Z,0.43
2018-12-07T20:36:46.242Z,0.50
2018-12-07T20:39:12.485Z,0.51
2018-12-07T20:41:38.954Z,0.59
2018-12-07T20:44:05.278Z,0.54
2018-12-07T20:46:31.312Z,0.48
2018-12-07T20:48:57.643Z,0.45
2018-12-07T20:51:26.226Z,0.55
2018-12-07T20:53:50.293Z,0.56
2018-12-07T20:56:16.507Z,0.50
2018-12-07T20:58:42.880Z,0.40
2018-12-07T21:01:09.151Z,0.38
2018-12-07T21:03:35.387Z,0.33
2018-12-07T21:06:01.950Z,0.29
2018-12-07T21:08:28.213Z,0.30
2018-12-07T21:10:54.410Z,0.29
2018-12-07T21:13:20.624Z,0.21
2018-12-07T21:15:46.942Z,0.14
2018-12-07T21:18:13.436Z,0.31
2018-12-07T21:20:39.553Z,0.35
2018-12-07T21:23:06.057Z,0.26
2018-12-07T21:25:32.291Z,0.15
2018-12-07T21:27:58.719Z,0.11
2018-12-07T21:30:24.798Z,0.12
2018-12-07T21:32:51.385Z,0.28
2018-12-07T21:35:17.560Z,0.39
2018-12-07T21:37:44.011Z,0.21
2018-12-07T21:40:10.098Z,0.07
2018-12-07T21:42:36.555Z,0.12
2018-12-07T21:45:02.821Z,-0.02
2018-12-07T21:47:29.235Z,-0.09
2018-12-07T21:49:55.581Z,-0.09
2018-12-07T21:52:21.600Z,-0.02
2018-12-07T21:54:48.100Z,-0.04
2018-12-07T21:57:14.181Z,-0.02
2018-12-07T21:59:40.441Z,0.08
2018-12-07T22:02:06.802Z,-0.05
2018-12-07T22:04:33.043Z,-0.11
2018-12-07T22:06:59.394Z,0.08
2018-12-07T22:09:25.665Z,0.07
2018-12-07T22:11:52.238Z,-0.04
2018-12-07T22:14:18.637Z,-0.11
2018-12-07T22:16:44.852Z,-0.13
2018-12-07T22:19:11.132Z,-0.19
2018-12-07T22:21:37.472Z,-0.16
2018-12-07T22:24:04.128Z,-0.14
2018-12-07T22:26:30.178Z,-0.16
2018-12-07T22:28:56.465Z,-0.18
2018-12-07T22:31:23.021Z,-0.09
2018-12-07T22:33:49.269Z,0.01
2018-12-07T22:36:15.451Z,0.05
2018-12-07T22:38:41.875Z,0.06
2018-12-07T22:41:08.359Z,0.11
2018-12-07T22:43:34.483Z,0.10
2018-12-07T22:46:00.971Z,0.26
2018-12-07T22:48:27.581Z,0.38
2018-12-07T22:50:53.846Z,0.33
2018-12-07T22:53:20.152Z,0.30
2018-12-07T22:55:46.476Z,0.38
2018-12-07T22:58:12.770Z,0.42
2018-12-07T23:00:39.095Z,0.45
2018-12-07T23:03:05.409Z,0.44
2018-12-07T23:05:31.728Z,0.55
2018-12-07T23:07:58.076Z,0.59
2018-12-07T23:10:24.371Z,0.59
2018-12-07T23:12:50.727Z,0.56
2018-12-07T23:15:17.029Z,0.60
2018-12-07T23:17:43.319Z,0.65
2018-12-07T23:20:09.651Z,0.60
2018-12-07T23:22:35.944Z,0.59
2018-12-07T23:25:02.379Z,0.61
2018-12-07T23:27:28.627Z,0.58
2018-12-07T23:29:54.975Z,0.65
2018-12-07T23:32:21.325Z,0.48
2018-12-07T23:34:47.625Z,0.32
2018-12-07T23:37:13.939Z,0.22
2018-12-07T23:39:40.233Z,0.25
2018-12-07T23:42:06.544Z,0.17
2018-12-07T23:44:32.832Z,0.10
2018-12-07T23:46:59.239Z,0.10
2018-12-07T23:49:25.536Z,0.07
2018-12-07T23:51:51.846Z,-0.03
2018-12-07T23:54:18.151Z,-0.13
2018-12-07T23:56:44.455Z,-0.25
2018-12-07T23:59:10.763Z,-0.33
